sensor_id;sensor_type;location;lat;lon;timestamp;P1;durP1;ratioP1;P2;durP2;ratioP2
27999;SDS011;15328;50.860;10.562;2024-01-07T00:00:58;24.35;;;12.55;;
27999;SDS011;15328;50.860;10.562;2024-01-07T00:05:58;25.52;;;12.02;;
27999;SDS011;15328;50.860;10.562;2024-01-07T00:10:59;35.27;;;12.73;;
27999;SDS011;15328;50.860;10.562;2024-01-07T00:15:59;25.08;;;12.93;;
27999;SDS011;15328;50.860;10.562;2024-01-07T00:21:00;24.52;;;13.00;;
27999;SDS011;15328;50.860;10.562;2024-01-07T00:26:01;24.35;;;12.32;;
27999;SDS011;15328;50.860;10.562;2024-01-07T00:31:03;28.85;;;13.13;;
27999;SDS011;15328;50.860;10.562;2024-01-07T00:36:03;25.43;;;12.40;;
27999;SDS011;15328;50.860;10.562;2024-01-07T00:41:04;24.13;;;12.00;;
27999;SDS011;15328;50.860;10.562;2024-01-07T00:46:04;22.38;;;11.38;;
27999;SDS011;15328;50.860;10.562;2024-01-07T00:51:05;18.50;;;10.40;;
27999;SDS011;15328;50.860;10.562;2024-01-07T00:56:05;18.15;;;9.80;;
27999;SDS011;15328;50.860;10.562;2024-01-07T01:01:06;19.00;;;9.95;;
27999;SDS011;15328;50.860;10.562;2024-01-07T01:06:07;19.02;;;10.00;;
27999;SDS011;15328;50.860;10.562;2024-01-07T01:11:10;20.60;;;10.43;;
27999;SDS011;15328;50.860;10.562;2024-01-07T01:16:11;20.70;;;10.77;;
27999;SDS011;15328;50.860;10.562;2024-01-07T01:21:11;19.80;;;9.77;;
27999;SDS011;15328;50.860;10.562;2024-01-07T01:26:12;14.25;;;7.68;;
27999;SDS011;15328;50.860;10.562;2024-01-07T01:31:13;11.23;;;6.47;;
27999;SDS011;15328;50.860;10.562;2024-01-07T01:36:14;11.27;;;6.25;;
27999;SDS011;15328;50.860;10.562;2024-01-07T01:41:15;10.27;;;6.35;;
27999;SDS011;15328;50.860;10.562;2024-01-07T01:46:16;12.00;;;6.80;;
27999;SDS011;15328;50.860;10.562;2024-01-07T01:51:17;13.23;;;7.70;;
27999;SDS011;15328;50.860;10.562;2024-01-07T01:56:18;13.73;;;7.38;;
27999;SDS011;15328;50.860;10.562;2024-01-07T02:01:23;13.88;;;8.05;;
27999;SDS011;15328;50.860;10.562;2024-01-07T02:06:24;14.18;;;8.68;;
27999;SDS011;15328;50.860;10.562;2024-01-07T02:11:25;14.98;;;8.05;;
27999;SDS011;15328;50.860;10.562;2024-01-07T02:16:25;50.85;;;9.63;;
27999;SDS011;15328;50.860;10.562;2024-01-07T02:21:26;15.60;;;8.90;;
27999;SDS011;15328;50.860;10.562;2024-01-07T02:26:26;14.53;;;8.13;;
27999;SDS011;15328;50.860;10.562;2024-01-07T02:31:27;15.45;;;8.68;;
27999;SDS011;15328;50.860;10.562;2024-01-07T02:36:27;18.77;;;10.48;;
27999;SDS011;15328;50.860;10.562;2024-01-07T02:41:28;21.40;;;11.52;;
27999;SDS011;15328;50.860;10.562;2024-01-07T02:46:28;20.75;;;10.75;;
27999;SDS011;15328;50.860;10.562;2024-01-07T02:51:28;23.83;;;11.57;;
27999;SDS011;15328;50.860;10.562;2024-01-07T02:56:29;23.73;;;12.35;;
27999;SDS011;15328;50.860;10.562;2024-01-07T03:01:31;24.33;;;12.30;;
27999;SDS011;15328;50.860;10.562;2024-01-07T03:06:31;18.10;;;10.50;;
27999;SDS011;15328;50.860;10.562;2024-01-07T03:11:32;20.83;;;10.60;;
27999;SDS011;15328;50.860;10.562;2024-01-07T03:16:32;21.00;;;11.60;;
27999;SDS011;15328;50.860;10.562;2024-01-07T03:21:33;24.35;;;11.73;;
27999;SDS011;15328;50.860;10.562;2024-01-07T03:26:33;19.13;;;11.33;;
27999;SDS011;15328;50.860;10.562;2024-01-07T03:31:33;18.23;;;10.60;;
27999;SDS011;15328;50.860;10.562;2024-01-07T03:36:34;17.02;;;9.38;;
27999;SDS011;15328;50.860;10.562;2024-01-07T03:41:34;16.80;;;9.18;;
27999;SDS011;15328;50.860;10.562;2024-01-07T03:46:34;14.43;;;8.67;;
27999;SDS011;15328;50.860;10.562;2024-01-07T03:51:35;13.40;;;8.17;;
27999;SDS011;15328;50.860;10.562;2024-01-07T03:56:35;13.73;;;8.02;;
27999;SDS011;15328;50.860;10.562;2024-01-07T04:01:36;13.85;;;6.97;;
27999;SDS011;15328;50.860;10.562;2024-01-07T04:06:36;13.25;;;7.80;;
27999;SDS011;15328;50.860;10.562;2024-01-07T04:11:40;11.93;;;7.77;;
27999;SDS011;15328;50.860;10.562;2024-01-07T04:16:41;13.40;;;8.10;;
27999;SDS011;15328;50.860;10.562;2024-01-07T04:21:45;13.45;;;8.15;;
27999;SDS011;15328;50.860;10.562;2024-01-07T04:26:46;14.55;;;8.95;;
27999;SDS011;15328;50.860;10.562;2024-01-07T04:31:46;16.05;;;9.20;;
27999;SDS011;15328;50.860;10.562;2024-01-07T04:36:46;14.93;;;9.40;;
27999;SDS011;15328;50.860;10.562;2024-01-07T04:41:47;17.23;;;9.55;;
27999;SDS011;15328;50.860;10.562;2024-01-07T04:46:48;17.65;;;10.02;;
27999;SDS011;15328;50.860;10.562;2024-01-07T04:51:51;16.52;;;9.45;;
27999;SDS011;15328;50.860;10.562;2024-01-07T04:56:51;16.10;;;9.25;;
27999;SDS011;15328;50.860;10.562;2024-01-07T05:01:52;16.38;;;9.63;;
27999;SDS011;15328;50.860;10.562;2024-01-07T05:06:52;15.77;;;8.63;;
27999;SDS011;15328;50.860;10.562;2024-01-07T05:11:52;14.73;;;9.10;;
27999;SDS011;15328;50.860;10.562;2024-01-07T05:16:53;18.35;;;10.23;;
27999;SDS011;15328;50.860;10.562;2024-01-07T05:21:54;18.58;;;9.98;;
27999;SDS011;15328;50.860;10.562;2024-01-07T05:26:54;20.27;;;10.73;;
27999;SDS011;15328;50.860;10.562;2024-01-07T05:31:55;22.73;;;11.27;;
27999;SDS011;15328;50.860;10.562;2024-01-07T05:36:55;20.95;;;11.50;;
27999;SDS011;15328;50.860;10.562;2024-01-07T05:41:56;17.40;;;10.95;;
27999;SDS011;15328;50.860;10.562;2024-01-07T05:46:56;21.05;;;11.57;;
27999;SDS011;15328;50.860;10.562;2024-01-07T05:51:56;20.90;;;11.35;;
27999;SDS011;15328;50.860;10.562;2024-01-07T05:56:57;19.48;;;10.73;;
27999;SDS011;15328;50.860;10.562;2024-01-07T06:01:57;22.10;;;11.60;;
27999;SDS011;15328;50.860;10.562;2024-01-07T06:06:58;18.42;;;9.77;;
27999;SDS011;15328;50.860;10.562;2024-01-07T06:11:59;21.67;;;11.38;;
27999;SDS011;15328;50.860;10.562;2024-01-07T06:16:59;20.02;;;10.30;;
27999;SDS011;15328;50.860;10.562;2024-01-07T06:22:00;18.30;;;10.30;;
27999;SDS011;15328;50.860;10.562;2024-01-07T06:27:00;18.40;;;10.33;;
27999;SDS011;15328;50.860;10.562;2024-01-07T06:32:03;23.42;;;12.43;;
27999;SDS011;15328;50.860;10.562;2024-01-07T06:37:04;18.67;;;11.23;;
27999;SDS011;15328;50.860;10.562;2024-01-07T06:42:05;16.48;;;9.70;;
27999;SDS011;15328;50.860;10.562;2024-01-07T06:47:06;17.60;;;9.95;;
27999;SDS011;15328;50.860;10.562;2024-01-07T06:52:06;15.30;;;8.63;;
27999;SDS011;15328;50.860;10.562;2024-01-07T06:57:06;15.93;;;8.65;;
27999;SDS011;15328;50.860;10.562;2024-01-07T07:02:07;15.82;;;9.00;;
27999;SDS011;15328;50.860;10.562;2024-01-07T07:07:07;14.23;;;7.83;;
27999;SDS011;15328;50.860;10.562;2024-01-07T07:12:08;15.88;;;8.30;;
27999;SDS011;15328;50.860;10.562;2024-01-07T07:17:08;14.55;;;8.25;;
27999;SDS011;15328;50.860;10.562;2024-01-07T07:22:09;16.13;;;8.63;;
27999;SDS011;15328;50.860;10.562;2024-01-07T07:27:09;15.75;;;8.35;;
27999;SDS011;15328;50.860;10.562;2024-01-07T07:32:09;13.38;;;7.55;;
27999;SDS011;15328;50.860;10.562;2024-01-07T07:37:10;15.83;;;8.43;;
27999;SDS011;15328;50.860;10.562;2024-01-07T07:42:10;14.93;;;8.45;;
27999;SDS011;15328;50.860;10.562;2024-01-07T07:47:10;13.15;;;7.55;;
27999;SDS011;15328;50.860;10.562;2024-01-07T07:52:11;14.13;;;8.52;;
27999;SDS011;15328;50.860;10.562;2024-01-07T07:57:14;14.35;;;8.13;;
27999;SDS011;15328;50.860;10.562;2024-01-07T08:02:14;16.52;;;8.93;;
27999;SDS011;15328;50.860;10.562;2024-01-07T08:07:15;15.73;;;8.25;;
27999;SDS011;15328;50.860;10.562;2024-01-07T08:12:15;16.07;;;8.33;;
27999;SDS011;15328;50.860;10.562;2024-01-07T08:17:15;14.40;;;8.00;;
27999;SDS011;15328;50.860;10.562;2024-01-07T08:22:16;13.88;;;7.53;;
27999;SDS011;15328;50.860;10.562;2024-01-07T08:27:17;14.68;;;7.68;;
27999;SDS011;15328;50.860;10.562;2024-01-07T08:32:17;14.73;;;7.82;;
27999;SDS011;15328;50.860;10.562;2024-01-07T08:37:19;13.40;;;7.82;;
27999;SDS011;15328;50.860;10.562;2024-01-07T08:42:19;15.13;;;8.02;;
27999;SDS011;15328;50.860;10.562;2024-01-07T08:47:19;13.48;;;8.13;;
27999;SDS011;15328;50.860;10.562;2024-01-07T08:52:20;14.40;;;8.13;;
27999;SDS011;15328;50.860;10.562;2024-01-07T08:57:21;17.02;;;8.57;;
27999;SDS011;15328;50.860;10.562;2024-01-07T09:02:21;15.68;;;8.32;;
27999;SDS011;15328;50.860;10.562;2024-01-07T09:07:21;16.25;;;8.15;;
27999;SDS011;15328;50.860;10.562;2024-01-07T09:12:22;12.45;;;6.97;;
27999;SDS011;15328;50.860;10.562;2024-01-07T09:17:22;11.73;;;6.10;;
27999;SDS011;15328;50.860;10.562;2024-01-07T09:22:23;10.45;;;5.78;;
27999;SDS011;15328;50.860;10.562;2024-01-07T09:27:23;10.40;;;6.10;;
27999;SDS011;15328;50.860;10.562;2024-01-07T09:32:24;12.65;;;6.45;;
27999;SDS011;15328;50.860;10.562;2024-01-07T09:37:24;12.35;;;6.13;;
27999;SDS011;15328;50.860;10.562;2024-01-07T09:42:25;10.60;;;6.05;;
27999;SDS011;15328;50.860;10.562;2024-01-07T09:47:26;8.70;;;5.47;;
27999;SDS011;15328;50.860;10.562;2024-01-07T09:52:26;9.10;;;5.65;;
27999;SDS011;15328;50.860;10.562;2024-01-07T09:57:27;10.32;;;5.80;;
27999;SDS011;15328;50.860;10.562;2024-01-07T10:02:27;9.32;;;5.05;;
27999;SDS011;15328;50.860;10.562;2024-01-07T10:07:28;216.85;;;20.33;;
27999;SDS011;15328;50.860;10.562;2024-01-07T10:12:29;37.60;;;7.13;;
27999;SDS011;15328;50.860;10.562;2024-01-07T10:17:29;7.18;;;4.20;;
27999;SDS011;15328;50.860;10.562;2024-01-07T10:22:29;10.07;;;4.13;;
27999;SDS011;15328;50.860;10.562;2024-01-07T10:27:33;7.20;;;3.90;;
27999;SDS011;15328;50.860;10.562;2024-01-07T10:32:37;5.70;;;3.47;;
27999;SDS011;15328;50.860;10.562;2024-01-07T10:37:37;6.43;;;3.88;;
27999;SDS011;15328;50.860;10.562;2024-01-07T10:42:39;11.65;;;5.75;;
27999;SDS011;15328;50.860;10.562;2024-01-07T10:47:42;5.90;;;3.60;;
27999;SDS011;15328;50.860;10.562;2024-01-07T10:52:50;6.67;;;3.97;;
27999;SDS011;15328;50.860;10.562;2024-01-07T10:57:55;6.68;;;4.00;;
27999;SDS011;15328;50.860;10.562;2024-01-07T11:08:11;5.22;;;3.30;;
27999;SDS011;15328;50.860;10.562;2024-01-07T11:18:49;5.07;;;3.30;;
27999;SDS011;15328;50.860;10.562;2024-01-07T11:23:51;4.55;;;2.95;;
27999;SDS011;15328;50.860;10.562;2024-01-07T11:28:53;5.45;;;3.05;;
27999;SDS011;15328;50.860;10.562;2024-01-07T11:33:56;5.18;;;3.10;;
27999;SDS011;15328;50.860;10.562;2024-01-07T11:38:56;4.30;;;2.72;;
27999;SDS011;15328;50.860;10.562;2024-01-07T11:43:57;4.15;;;3.00;;
27999;SDS011;15328;50.860;10.562;2024-01-07T11:48:59;5.45;;;2.60;;
27999;SDS011;15328;50.860;10.562;2024-01-07T11:54:02;5.00;;;3.00;;
27999;SDS011;15328;50.860;10.562;2024-01-07T11:59:03;4.80;;;3.10;;
27999;SDS011;15328;50.860;10.562;2024-01-07T12:04:04;11.95;;;6.03;;
27999;SDS011;15328;50.860;10.562;2024-01-07T12:09:05;6.07;;;3.60;;
27999;SDS011;15328;50.860;10.562;2024-01-07T12:14:05;3.83;;;2.80;;
27999;SDS011;15328;50.860;10.562;2024-01-07T12:19:08;4.95;;;2.53;;
27999;SDS011;15328;50.860;10.562;2024-01-07T12:24:09;3.90;;;2.45;;
27999;SDS011;15328;50.860;10.562;2024-01-07T12:29:11;4.07;;;2.38;;
27999;SDS011;15328;50.860;10.562;2024-01-07T12:34:12;4.32;;;2.53;;
27999;SDS011;15328;50.860;10.562;2024-01-07T12:39:12;4.43;;;2.20;;
27999;SDS011;15328;50.860;10.562;2024-01-07T12:44:13;5.63;;;2.88;;
27999;SDS011;15328;50.860;10.562;2024-01-07T12:49:13;5.10;;;2.72;;
27999;SDS011;15328;50.860;10.562;2024-01-07T12:54:13;5.60;;;2.20;;
27999;SDS011;15328;50.860;10.562;2024-01-07T12:59:14;4.90;;;2.90;;
27999;SDS011;15328;50.860;10.562;2024-01-07T13:04:14;3.95;;;2.58;;
27999;SDS011;15328;50.860;10.562;2024-01-07T13:09:14;4.47;;;2.60;;
27999;SDS011;15328;50.860;10.562;2024-01-07T13:14:15;2.78;;;2.28;;
27999;SDS011;15328;50.860;10.562;2024-01-07T13:19:15;4.75;;;2.17;;
27999;SDS011;15328;50.860;10.562;2024-01-07T13:24:16;4.28;;;2.45;;
27999;SDS011;15328;50.860;10.562;2024-01-07T13:29:16;3.95;;;2.30;;
27999;SDS011;15328;50.860;10.562;2024-01-07T13:34:16;6.45;;;2.53;;
27999;SDS011;15328;50.860;10.562;2024-01-07T13:39:18;2.92;;;2.00;;
27999;SDS011;15328;50.860;10.562;2024-01-07T13:44:19;3.22;;;2.20;;
27999;SDS011;15328;50.860;10.562;2024-01-07T13:49:19;3.75;;;2.28;;
27999;SDS011;15328;50.860;10.562;2024-01-07T13:54:19;4.88;;;2.45;;
27999;SDS011;15328;50.860;10.562;2024-01-07T13:59:20;5.25;;;2.35;;
27999;SDS011;15328;50.860;10.562;2024-01-07T14:04:23;4.05;;;2.60;;
27999;SDS011;15328;50.860;10.562;2024-01-07T14:09:24;5.25;;;2.88;;
27999;SDS011;15328;50.860;10.562;2024-01-07T14:14:25;5.45;;;2.30;;
27999;SDS011;15328;50.860;10.562;2024-01-07T14:19:25;5.50;;;2.88;;
27999;SDS011;15328;50.860;10.562;2024-01-07T14:24:26;3.90;;;2.42;;
27999;SDS011;15328;50.860;10.562;2024-01-07T14:29:26;3.58;;;2.00;;
27999;SDS011;15328;50.860;10.562;2024-01-07T14:34:26;4.73;;;2.23;;
27999;SDS011;15328;50.860;10.562;2024-01-07T14:39:27;3.78;;;2.22;;
27999;SDS011;15328;50.860;10.562;2024-01-07T14:44:27;4.78;;;2.55;;
27999;SDS011;15328;50.860;10.562;2024-01-07T14:49:27;3.70;;;2.22;;
27999;SDS011;15328;50.860;10.562;2024-01-07T14:54:28;4.73;;;2.53;;
27999;SDS011;15328;50.860;10.562;2024-01-07T14:59:31;5.18;;;2.47;;
27999;SDS011;15328;50.860;10.562;2024-01-07T15:04:31;5.95;;;3.17;;
27999;SDS011;15328;50.860;10.562;2024-01-07T15:09:32;4.97;;;2.50;;
27999;SDS011;15328;50.860;10.562;2024-01-07T15:14:32;5.03;;;2.60;;
27999;SDS011;15328;50.860;10.562;2024-01-07T15:19:33;5.40;;;3.03;;
27999;SDS011;15328;50.860;10.562;2024-01-07T15:24:34;5.22;;;3.30;;
27999;SDS011;15328;50.860;10.562;2024-01-07T15:29:34;3.72;;;2.35;;
27999;SDS011;15328;50.860;10.562;2024-01-07T15:34:35;4.68;;;3.00;;
27999;SDS011;15328;50.860;10.562;2024-01-07T15:39:35;3.38;;;2.53;;
27999;SDS011;15328;50.860;10.562;2024-01-07T15:44:36;5.78;;;2.60;;
27999;SDS011;15328;50.860;10.562;2024-01-07T15:49:38;3.78;;;2.50;;
27999;SDS011;15328;50.860;10.562;2024-01-07T15:54:38;6.57;;;3.15;;
27999;SDS011;15328;50.860;10.562;2024-01-07T15:59:42;5.03;;;3.05;;
27999;SDS011;15328;50.860;10.562;2024-01-07T16:04:43;5.00;;;3.10;;
27999;SDS011;15328;50.860;10.562;2024-01-07T16:09:43;12.95;;;5.97;;
27999;SDS011;15328;50.860;10.562;2024-01-07T16:14:43;5.05;;;3.22;;
27999;SDS011;15328;50.860;10.562;2024-01-07T16:19:44;5.10;;;2.90;;
27999;SDS011;15328;50.860;10.562;2024-01-07T16:24:44;6.03;;;3.22;;
27999;SDS011;15328;50.860;10.562;2024-01-07T16:29:44;5.63;;;3.42;;
27999;SDS011;15328;50.860;10.562;2024-01-07T16:34:45;5.27;;;3.20;;
27999;SDS011;15328;50.860;10.562;2024-01-07T16:39:45;6.50;;;4.03;;
27999;SDS011;15328;50.860;10.562;2024-01-07T16:44:46;7.25;;;4.05;;
27999;SDS011;15328;50.860;10.562;2024-01-07T16:49:47;7.60;;;4.30;;
27999;SDS011;15328;50.860;10.562;2024-01-07T16:54:47;6.97;;;4.18;;
27999;SDS011;15328;50.860;10.562;2024-01-07T16:59:48;8.95;;;4.32;;
27999;SDS011;15328;50.860;10.562;2024-01-07T17:04:49;9.18;;;4.60;;
27999;SDS011;15328;50.860;10.562;2024-01-07T17:09:50;6.97;;;4.15;;
27999;SDS011;15328;50.860;10.562;2024-01-07T17:14:50;6.88;;;3.72;;
27999;SDS011;15328;50.860;10.562;2024-01-07T17:19:52;6.80;;;4.10;;
27999;SDS011;15328;50.860;10.562;2024-01-07T17:24:52;7.05;;;4.10;;
27999;SDS011;15328;50.860;10.562;2024-01-07T17:29:53;6.93;;;3.90;;
27999;SDS011;15328;50.860;10.562;2024-01-07T17:34:54;16.50;;;7.50;;
27999;SDS011;15328;50.860;10.562;2024-01-07T17:39:54;12.07;;;5.73;;
27999;SDS011;15328;50.860;10.562;2024-01-07T17:44:55;7.38;;;4.45;;
27999;SDS011;15328;50.860;10.562;2024-01-07T17:49:55;9.77;;;4.07;;
27999;SDS011;15328;50.860;10.562;2024-01-07T17:54:56;6.85;;;3.70;;
27999;SDS011;15328;50.860;10.562;2024-01-07T18:00:00;6.05;;;3.83;;
27999;SDS011;15328;50.860;10.562;2024-01-07T18:05:01;6.82;;;4.15;;
27999;SDS011;15328;50.860;10.562;2024-01-07T18:10:02;8.40;;;5.28;;
27999;SDS011;15328;50.860;10.562;2024-01-07T18:15:03;8.13;;;4.07;;
27999;SDS011;15328;50.860;10.562;2024-01-07T18:20:05;9.23;;;5.35;;
27999;SDS011;15328;50.860;10.562;2024-01-07T18:25:06;7.75;;;4.47;;
27999;SDS011;15328;50.860;10.562;2024-01-07T18:30:07;5.78;;;3.58;;
27999;SDS011;15328;50.860;10.562;2024-01-07T18:35:08;6.78;;;3.85;;
27999;SDS011;15328;50.860;10.562;2024-01-07T18:40:11;7.15;;;4.40;;
27999;SDS011;15328;50.860;10.562;2024-01-07T18:45:12;7.05;;;4.45;;
27999;SDS011;15328;50.860;10.562;2024-01-07T18:50:13;7.13;;;3.80;;
27999;SDS011;15328;50.860;10.562;2024-01-07T18:55:15;5.85;;;3.75;;
27999;SDS011;15328;50.860;10.562;2024-01-07T19:00:15;5.95;;;3.85;;
27999;SDS011;15328;50.860;10.562;2024-01-07T19:05:16;6.47;;;3.78;;
27999;SDS011;15328;50.860;10.562;2024-01-07T19:10:18;5.63;;;3.42;;
27999;SDS011;15328;50.860;10.562;2024-01-07T19:15:18;5.97;;;3.60;;
27999;SDS011;15328;50.860;10.562;2024-01-07T19:20:22;5.78;;;3.58;;
27999;SDS011;15328;50.860;10.562;2024-01-07T19:25:30;6.30;;;3.30;;
27999;SDS011;15328;50.860;10.562;2024-01-07T19:30:30;7.72;;;3.85;;
27999;SDS011;15328;50.860;10.562;2024-01-07T19:35:32;5.68;;;3.60;;
27999;SDS011;15328;50.860;10.562;2024-01-07T19:40:34;36.38;;;18.10;;
27999;SDS011;15328;50.860;10.562;2024-01-07T19:45:36;10.63;;;6.38;;
27999;SDS011;15328;50.860;10.562;2024-01-07T19:50:39;4.63;;;2.80;;
27999;SDS011;15328;50.860;10.562;2024-01-07T19:55:43;5.32;;;2.78;;
27999;SDS011;15328;50.860;10.562;2024-01-07T20:00:51;4.85;;;2.67;;
27999;SDS011;15328;50.860;10.562;2024-01-07T20:05:52;6.95;;;3.10;;
27999;SDS011;15328;50.860;10.562;2024-01-07T20:10:52;3.85;;;2.75;;
27999;SDS011;15328;50.860;10.562;2024-01-07T20:15:52;5.50;;;3.13;;
27999;SDS011;15328;50.860;10.562;2024-01-07T20:20:53;5.22;;;3.00;;
27999;SDS011;15328;50.860;10.562;2024-01-07T20:25:54;5.22;;;3.47;;
27999;SDS011;15328;50.860;10.562;2024-01-07T20:30:54;5.28;;;3.33;;
27999;SDS011;15328;50.860;10.562;2024-01-07T20:35:55;6.40;;;3.40;;
27999;SDS011;15328;50.860;10.562;2024-01-07T20:40:56;7.22;;;3.35;;
27999;SDS011;15328;50.860;10.562;2024-01-07T20:45:57;6.03;;;2.67;;
27999;SDS011;15328;50.860;10.562;2024-01-07T20:50:57;5.13;;;2.58;;
27999;SDS011;15328;50.860;10.562;2024-01-07T20:55:59;4.88;;;2.80;;
27999;SDS011;15328;50.860;10.562;2024-01-07T21:01:00;4.18;;;2.72;;
27999;SDS011;15328;50.860;10.562;2024-01-07T21:06:00;4.43;;;3.13;;
27999;SDS011;15328;50.860;10.562;2024-01-07T21:11:01;3.90;;;2.65;;
27999;SDS011;15328;50.860;10.562;2024-01-07T21:16:04;5.22;;;2.65;;
27999;SDS011;15328;50.860;10.562;2024-01-07T21:21:05;4.53;;;2.35;;
27999;SDS011;15328;50.860;10.562;2024-01-07T21:26:05;5.43;;;2.70;;
27999;SDS011;15328;50.860;10.562;2024-01-07T21:31:06;4.22;;;2.63;;
27999;SDS011;15328;50.860;10.562;2024-01-07T21:36:09;6.03;;;2.72;;
27999;SDS011;15328;50.860;10.562;2024-01-07T21:41:10;4.53;;;2.60;;
27999;SDS011;15328;50.860;10.562;2024-01-07T21:46:11;6.03;;;3.08;;
27999;SDS011;15328;50.860;10.562;2024-01-07T21:51:12;3.67;;;2.70;;
27999;SDS011;15328;50.860;10.562;2024-01-07T21:56:12;3.45;;;2.60;;
27999;SDS011;15328;50.860;10.562;2024-01-07T22:01:12;5.20;;;2.90;;
27999;SDS011;15328;50.860;10.562;2024-01-07T22:06:13;5.03;;;2.63;;
27999;SDS011;15328;50.860;10.562;2024-01-07T22:11:13;4.25;;;2.70;;
27999;SDS011;15328;50.860;10.562;2024-01-07T22:16:14;3.88;;;2.88;;
27999;SDS011;15328;50.860;10.562;2024-01-07T22:21:16;6.80;;;2.95;;
27999;SDS011;15328;50.860;10.562;2024-01-07T22:26:20;4.95;;;2.78;;
27999;SDS011;15328;50.860;10.562;2024-01-07T22:31:20;5.32;;;2.72;;
27999;SDS011;15328;50.860;10.562;2024-01-07T22:36:21;5.07;;;2.85;;
27999;SDS011;15328;50.860;10.562;2024-01-07T22:41:21;4.22;;;2.60;;
27999;SDS011;15328;50.860;10.562;2024-01-07T22:46:21;5.18;;;2.85;;
27999;SDS011;15328;50.860;10.562;2024-01-07T22:51:22;5.13;;;3.00;;
27999;SDS011;15328;50.860;10.562;2024-01-07T22:56:22;4.60;;;2.97;;
27999;SDS011;15328;50.860;10.562;2024-01-07T23:01:26;7.30;;;3.30;;
27999;SDS011;15328;50.860;10.562;2024-01-07T23:06:28;7.93;;;3.15;;
27999;SDS011;15328;50.860;10.562;2024-01-07T23:11:28;5.50;;;3.00;;
27999;SDS011;15328;50.860;10.562;2024-01-07T23:16:29;5.07;;;3.25;;
27999;SDS011;15328;50.860;10.562;2024-01-07T23:21:29;4.63;;;2.97;;
27999;SDS011;15328;50.860;10.562;2024-01-07T23:26:29;5.57;;;3.42;;
27999;SDS011;15328;50.860;10.562;2024-01-07T23:31:30;5.03;;;3.05;;
27999;SDS011;15328;50.860;10.562;2024-01-07T23:36:30;5.30;;;3.43;;
27999;SDS011;15328;50.860;10.562;2024-01-07T23:41:31;5.93;;;3.05;;
27999;SDS011;15328;50.860;10.562;2024-01-07T23:46:31;5.32;;;3.22;;
27999;SDS011;15328;50.860;10.562;2024-01-07T23:51:33;4.90;;;3.42;;
27999;SDS011;15328;50.860;10.562;2024-01-07T23:56:34;5.38;;;3.40;;
